createdAt,value
2022-10-17T00:00:42.453Z,6.27
2022-10-17T00:03:09.463Z,4.33
2022-10-17T00:05:43.398Z,6.70
2022-10-17T00:08:11.380Z,9.27
2022-10-17T00:10:39.102Z,6.97
2022-10-17T00:13:07.059Z,8.63
2022-10-17T00:15:33.781Z,10.43
2022-10-17T00:18:01.120Z,6.27
2022-10-17T00:20:30.340Z,8.90
2022-10-17T00:22:57.392Z,8.97
2022-10-17T00:25:24.272Z,7.00
2022-10-17T00:27:50.983Z,11.63
2022-10-17T00:30:17.889Z,9.87
2022-10-17T00:32:44.665Z,9.33
2022-10-17T00:35:11.857Z,6.73
2022-10-17T00:37:38.789Z,6.23
2022-10-17T00:40:06.955Z,7.47
2022-10-17T00:42:34.175Z,9.00
2022-10-17T00:45:04.785Z,10.47
2022-10-17T00:47:33.678Z,7.87
2022-10-17T00:55:31.460Z,9.67
2022-10-17T00:58:02.388Z,5.47
2022-10-17T01:00:29.553Z,11.70
2022-10-17T01:02:58.041Z,9.90
2022-10-17T01:05:24.958Z,9.00
2022-10-17T01:07:53.248Z,10.40
2022-10-17T01:13:14.729Z,4.63
2022-10-17T01:15:57.312Z,7.40
2022-10-17T01:18:50.411Z,9.23
2022-10-17T01:21:41.965Z,9.93
2022-10-17T01:24:25.445Z,6.43
2022-10-17T01:27:23.060Z,8.83
2022-10-17T01:30:12.664Z,8.57
2022-10-17T01:32:46.331Z,5.97
2022-10-17T01:35:37.164Z,8.10
2022-10-17T01:38:18.582Z,6.50
2022-10-17T01:40:51.247Z,6.10
2022-10-17T01:43:29.397Z,6.27
2022-10-17T01:46:03.316Z,5.00
2022-10-17T01:48:39.401Z,8.20
2022-10-17T01:51:13.275Z,10.40
2022-10-17T01:53:47.205Z,9.17
2022-10-17T01:56:17.191Z,7.80
2022-10-17T01:58:53.564Z,8.07
2022-10-17T02:01:22.194Z,7.27
2022-10-17T02:03:51.224Z,5.53
2022-10-17T02:06:18.035Z,8.73
2022-10-17T02:08:48.106Z,7.40
2022-10-17T02:11:21.572Z,5.77
2022-10-17T02:14:27.712Z,7.27
2022-10-17T02:17:02.972Z,7.37
2022-10-17T02:19:51.680Z,4.43
2022-10-17T02:22:27.483Z,6.20
2022-10-17T02:25:17.225Z,8.03
2022-10-17T02:27:56.576Z,9.60
2022-10-17T02:30:23.293Z,4.60
2022-10-17T02:32:59.720Z,6.93
2022-10-17T02:35:31.645Z,5.90
2022-10-17T02:38:00.216Z,7.87
2022-10-17T02:40:30.686Z,4.70
2022-10-17T02:42:59.609Z,7.93
2022-10-17T02:45:29.506Z,5.80
2022-10-17T02:48:38.724Z,4.90
2022-10-17T02:51:14.635Z,5.40
2022-10-17T02:53:49.368Z,9.40
2022-10-17T02:56:19.727Z,9.40
2022-10-17T02:58:51.611Z,11.87
2022-10-17T03:01:19.620Z,7.10
2022-10-17T03:03:46.677Z,6.50
2022-10-17T03:06:13.644Z,6.13
2022-10-17T03:08:40.409Z,6.57
2022-10-17T03:11:07.175Z,7.27
2022-10-17T03:13:36.351Z,7.60
2022-10-17T03:16:06.698Z,7.70
2022-10-17T03:18:33.805Z,7.50
2022-10-17T03:21:02.695Z,8.83
2022-10-17T03:23:29.962Z,6.47
2022-10-17T03:25:57.596Z,8.27
2022-10-17T03:28:24.529Z,6.80
2022-10-17T03:30:51.427Z,5.40
2022-10-17T03:33:18.224Z,8.33
2022-10-17T03:35:45.546Z,6.47
2022-10-17T03:38:12.447Z,9.23
2022-10-17T03:40:39.265Z,10.50
2022-10-17T03:43:06.813Z,6.77
2022-10-17T03:45:33.560Z,9.83
2022-10-17T03:48:01.272Z,8.27
2022-10-17T03:50:28.359Z,10.03
2022-10-17T03:52:55.856Z,7.70
2022-10-17T03:55:22.647Z,10.33
2022-10-17T03:57:49.939Z,7.10
2022-10-17T04:00:19.813Z,9.40
2022-10-17T04:02:53.988Z,8.40
2022-10-17T04:05:20.853Z,7.47
2022-10-17T04:07:48.189Z,10.07
2022-10-17T04:10:16.750Z,8.20
2022-10-17T04:12:43.723Z,10.70
2022-10-17T04:15:11.031Z,10.70
2022-10-17T04:17:38.471Z,19.23
2022-10-17T04:20:07.380Z,11.03
2022-10-17T04:22:34.508Z,8.80
2022-10-17T04:25:01.467Z,8.87
2022-10-17T04:27:35.001Z,8.87
2022-10-17T04:30:01.839Z,13.50
2022-10-17T04:32:31.290Z,9.67
2022-10-17T04:35:06.480Z,7.83
2022-10-17T04:37:33.798Z,7.50
2022-10-17T04:40:06.774Z,11.47
2022-10-17T04:42:34.912Z,11.23
2022-10-17T04:45:01.862Z,9.27
2022-10-17T04:47:28.717Z,9.87
2022-10-17T04:49:56.326Z,8.43
2022-10-17T04:52:23.447Z,11.53
2022-10-17T04:54:50.895Z,8.50
2022-10-17T04:57:19.926Z,11.40
2022-10-17T04:59:55.248Z,12.73
2022-10-17T05:02:27.902Z,9.60
2022-10-17T05:04:55.636Z,9.23
2022-10-17T05:07:22.369Z,8.40
2022-10-17T05:10:11.044Z,9.57
2022-10-17T05:12:40.079Z,11.07
2022-10-17T05:15:07.781Z,9.10
2022-10-17T05:17:34.793Z,10.40
2022-10-17T05:20:01.638Z,10.37
2022-10-17T05:22:31.104Z,10.20
2022-10-17T05:24:59.106Z,11.40
2022-10-17T05:27:25.870Z,8.47
2022-10-17T05:29:52.617Z,11.97
2022-10-17T05:32:25.683Z,15.33
2022-10-17T05:34:52.409Z,13.37
2022-10-17T05:37:20.937Z,8.57
2022-10-17T05:39:51.657Z,10.37
2022-10-17T05:42:19.411Z,10.27
2022-10-17T05:44:47.339Z,8.97
2022-10-17T05:47:16.242Z,10.97
2022-10-17T05:49:48.629Z,12.40
2022-10-17T05:52:20.479Z,9.40
2022-10-17T05:55:05.829Z,10.73
2022-10-17T05:57:32.662Z,10.77
2022-10-17T06:00:00.915Z,11.47
2022-10-17T06:02:29.404Z,11.30
2022-10-17T06:04:56.482Z,11.37
2022-10-17T06:07:24.151Z,13.73
2022-10-17T06:09:51.746Z,11.83
2022-10-17T06:12:18.473Z,10.13
2022-10-17T06:14:46.204Z,14.10
2022-10-17T06:17:16.230Z,13.40
2022-10-17T06:19:44.929Z,9.23
2022-10-17T06:22:13.764Z,10.13
2022-10-17T06:24:41.260Z,10.90
2022-10-17T06:27:11.720Z,12.63
2022-10-17T06:29:39.995Z,10.57
2022-10-17T06:32:09.824Z,14.87
2022-10-17T06:34:40.026Z,15.17
2022-10-17T06:37:07.006Z,13.20
2022-10-17T06:39:35.900Z,13.67
2022-10-17T06:42:10.396Z,17.53
2022-10-17T06:44:49.559Z,15.03
2022-10-17T06:47:22.257Z,13.60
2022-10-17T06:49:51.093Z,11.82
2022-10-17T06:52:32.183Z,14.00
2022-10-17T06:55:25.378Z,11.33
2022-10-17T06:58:10.561Z,18.10
2022-10-17T07:00:43.366Z,14.97
2022-10-17T07:03:12.464Z,12.63
2022-10-17T07:05:39.234Z,13.70
2022-10-17T07:08:06.362Z,14.90
2022-10-17T07:10:38.204Z,12.80
2022-10-17T07:13:06.872Z,11.87
2022-10-17T07:15:35.208Z,12.60
2022-10-17T07:18:02.207Z,12.57
2022-10-17T07:20:29.197Z,9.10
2022-10-17T07:22:56.712Z,11.90
2022-10-17T07:25:25.251Z,8.80
2022-10-17T07:27:56.681Z,10.60
2022-10-17T07:30:23.710Z,10.57
2022-10-17T07:33:00.224Z,10.13
2022-10-17T07:35:27.138Z,13.23
2022-10-17T07:37:54.673Z,10.43
2022-10-17T07:40:21.863Z,10.05
2022-10-17T07:42:48.724Z,11.32
2022-10-17T07:45:16.027Z,11.13
2022-10-17T07:47:43.732Z,8.95
2022-10-17T07:50:13.473Z,10.45
2022-10-17T07:52:40.291Z,9.18
2022-10-17T07:55:07.911Z,9.63
2022-10-17T07:57:34.799Z,9.90
2022-10-17T08:00:02.129Z,11.38
2022-10-17T08:02:39.583Z,10.43
2022-10-17T08:05:06.887Z,12.70
2022-10-17T08:07:33.914Z,9.80
2022-10-17T08:10:00.754Z,13.88
2022-10-17T08:12:27.893Z,9.82
2022-10-17T08:14:54.936Z,9.93
2022-10-17T08:17:21.774Z,8.18
2022-10-17T08:19:48.856Z,9.43
2022-10-17T08:22:15.908Z,11.50
2022-10-17T08:24:42.970Z,9.30
2022-10-17T08:27:11.566Z,9.23
2022-10-17T08:29:39.542Z,10.77
2022-10-17T08:32:09.843Z,9.70
2022-10-17T08:34:37.049Z,7.85
2022-10-17T08:37:03.949Z,7.68
2022-10-17T08:39:30.778Z,8.90
2022-10-17T08:42:26.718Z,7.25
2022-10-17T08:45:05.229Z,10.63
2022-10-17T08:47:45.552Z,9.38
2022-10-17T08:50:55.857Z,11.07
2022-10-17T08:54:06.497Z,10.32
2022-10-17T08:56:49.041Z,7.95
2022-10-17T08:59:31.177Z,8.13
2022-10-17T09:02:13.150Z,7.45
2022-10-17T09:05:01.662Z,8.65
2022-10-17T09:07:50.435Z,9.27
2022-10-17T09:10:36.835Z,8.75
2022-10-17T09:13:24.601Z,8.20
2022-10-17T09:16:04.534Z,5.82
2022-10-17T09:18:37.560Z,5.88
2022-10-17T09:21:26.870Z,5.60
2022-10-17T09:24:09.084Z,8.63
2022-10-17T09:26:39.458Z,6.63
2022-10-17T09:29:25.259Z,7.18
2022-10-17T09:32:11.304Z,5.43
2022-10-17T09:34:38.346Z,6.18
2022-10-17T09:37:13.406Z,7.65
2022-10-17T09:39:41.810Z,5.55
2022-10-17T09:42:14.821Z,6.53
2022-10-17T09:44:47.585Z,6.10
2022-10-17T09:47:42.777Z,6.22
2022-10-17T09:50:23.294Z,5.75
2022-10-17T09:52:50.841Z,6.50
2022-10-17T09:55:22.356Z,8.80
2022-10-17T09:58:00.826Z,7.80
2022-10-17T10:00:38.086Z,7.80
2022-10-17T10:03:10.946Z,6.88
2022-10-17T10:05:37.713Z,6.03
2022-10-17T10:08:12.718Z,9.13
2022-10-17T10:10:43.280Z,6.43
2022-10-17T10:13:12.731Z,8.55
2022-10-17T10:15:47.382Z,6.95
2022-10-17T10:18:35.870Z,6.35
2022-10-17T10:21:23.881Z,7.38
2022-10-17T10:23:59.627Z,8.68
2022-10-17T10:26:34.818Z,8.73
2022-10-17T10:29:30.662Z,7.53
2022-10-17T10:32:09.020Z,7.70
2022-10-17T10:34:39.373Z,9.27
2022-10-17T10:37:18.541Z,9.13
2022-10-17T10:40:01.240Z,9.88
2022-10-17T10:42:32.240Z,10.27
2022-10-17T10:45:29.370Z,7.60
2022-10-17T10:48:24.897Z,9.52
2022-10-17T10:50:58.624Z,9.18
2022-10-17T10:53:43.946Z,8.02
2022-10-17T10:56:13.657Z,8.50
2022-10-17T10:58:49.497Z,9.85
2022-10-17T11:01:42.433Z,8.80
2022-10-17T11:04:40.225Z,8.00
2022-10-17T11:07:13.592Z,8.48
2022-10-17T11:10:00.533Z,8.43
2022-10-17T11:12:54.803Z,9.23
2022-10-17T11:15:21.658Z,8.63
2022-10-17T11:17:57.347Z,9.80
2022-10-17T11:20:45.877Z,8.57
2022-10-17T11:23:21.846Z,9.63
2022-10-17T11:25:51.962Z,9.48
2022-10-17T11:28:21.636Z,8.43
2022-10-17T11:30:55.346Z,7.43
2022-10-17T11:33:30.154Z,7.50
2022-10-17T11:36:03.213Z,10.15
2022-10-17T11:38:42.009Z,8.07
2022-10-17T11:41:15.301Z,9.20
2022-10-17T11:43:52.953Z,7.50
2022-10-17T11:46:25.380Z,9.95
2022-10-17T11:49:20.422Z,6.68
2022-10-17T11:52:02.645Z,9.57
2022-10-17T11:54:49.081Z,7.53
2022-10-17T11:57:51.260Z,7.28
2022-10-17T12:00:35.760Z,10.18
2022-10-17T12:03:20.062Z,7.70
2022-10-17T12:06:03.713Z,7.30
2022-10-17T12:08:47.108Z,8.98
2022-10-17T12:11:38.938Z,9.02
2022-10-17T12:14:25.881Z,8.98
2022-10-17T12:16:53.544Z,8.55
2022-10-17T12:19:24.635Z,7.60
2022-10-17T12:22:03.195Z,9.00
2022-10-17T12:24:45.135Z,11.25
2022-10-17T12:27:31.707Z,9.00
2022-10-17T12:30:12.771Z,8.50
2022-10-17T12:33:06.196Z,10.10
2022-10-17T12:35:36.182Z,7.85
2022-10-17T12:38:16.622Z,8.73
2022-10-17T12:40:52.176Z,6.28
2022-10-17T12:43:28.120Z,6.97
2022-10-17T12:45:56.520Z,7.93
2022-10-17T12:48:38.737Z,6.85
2022-10-17T12:53:58.471Z,5.68
2022-10-17T12:56:38.100Z,5.38
2022-10-17T12:59:24.491Z,6.95
2022-10-17T13:01:57.559Z,4.57
2022-10-17T13:04:25.012Z,3.67
2022-10-17T13:06:54.431Z,4.30
2022-10-17T13:09:30.561Z,4.20
2022-10-17T13:12:04.399Z,4.47
2022-10-17T13:14:34.149Z,4.85
2022-10-17T13:17:06.898Z,8.13
2022-10-17T13:19:45.489Z,6.15
2022-10-17T13:22:24.784Z,4.80
2022-10-17T13:24:53.834Z,4.22
2022-10-17T13:27:28.847Z,5.03
2022-10-17T13:29:58.344Z,5.22
2022-10-17T13:32:27.614Z,7.78
2022-10-17T13:35:10.374Z,7.53
2022-10-17T13:37:39.979Z,5.50
2022-10-17T13:40:30.730Z,5.13
2022-10-17T13:42:56.577Z,5.75
2022-10-17T13:45:38.127Z,4.45
2022-10-17T13:48:08.369Z,4.40
2022-10-17T13:50:44.589Z,5.55
2022-10-17T13:53:29.436Z,4.15
2022-10-17T13:56:16.135Z,4.35
2022-10-17T13:58:50.966Z,7.20
2022-10-17T14:01:19.405Z,4.00
2022-10-17T14:03:49.870Z,5.00
2022-10-17T14:06:29.980Z,3.00
2022-10-17T14:09:05.345Z,6.65
2022-10-17T14:11:35.091Z,2.55
2022-10-17T14:14:03.872Z,3.50
2022-10-17T14:16:37.656Z,3.55
2022-10-17T14:19:06.323Z,2.55
2022-10-17T14:21:43.463Z,3.38
2022-10-17T14:24:23.399Z,3.40
2022-10-17T14:26:55.541Z,2.50
2022-10-17T14:29:24.872Z,2.53
2022-10-17T14:31:59.004Z,3.30
2022-10-17T14:34:34.491Z,5.47
2022-10-17T14:37:02.048Z,4.90
2022-10-17T14:39:29.663Z,3.05
2022-10-17T14:41:58.715Z,4.65
2022-10-17T14:44:35.335Z,5.65
2022-10-17T14:47:30.222Z,4.50
2022-10-17T14:50:04.454Z,4.03
2022-10-17T14:52:32.628Z,4.25
2022-10-17T14:55:12.638Z,6.05
2022-10-17T14:57:46.351Z,2.20
2022-10-17T15:00:18.021Z,3.63
2022-10-17T15:02:46.495Z,3.20
2022-10-17T15:05:14.383Z,3.22
2022-10-17T15:07:42.524Z,3.83
2022-10-17T15:10:21.750Z,5.13
2022-10-17T15:12:57.445Z,5.30
2022-10-17T15:15:28.791Z,4.10
2022-10-17T15:17:55.704Z,3.90
2022-10-17T15:20:26.282Z,10.95
2022-10-17T15:22:57.192Z,7.40
2022-10-17T15:25:24.997Z,4.60
2022-10-17T15:27:52.307Z,4.28
2022-10-17T15:30:23.466Z,4.68
2022-10-17T15:32:50.916Z,3.38
2022-10-17T15:35:18.188Z,3.17
2022-10-17T15:37:46.807Z,4.35
2022-10-17T15:40:17.701Z,4.35
2022-10-17T15:42:44.718Z,3.08
2022-10-17T15:45:15.139Z,3.50
2022-10-17T15:47:43.761Z,5.00
2022-10-17T15:50:15.125Z,4.03
2022-10-17T15:52:41.899Z,2.58
2022-10-17T15:55:09.895Z,3.60
2022-10-17T15:57:39.343Z,4.05
2022-10-17T16:00:26.576Z,4.95
2022-10-17T16:02:53.565Z,3.13
2022-10-17T16:05:23.511Z,5.93
2022-10-17T16:07:50.632Z,5.18
2022-10-17T16:10:18.172Z,4.53
2022-10-17T16:12:45.044Z,2.83
2022-10-17T16:15:16.457Z,4.25
2022-10-17T16:17:43.973Z,2.85
2022-10-17T16:20:12.856Z,3.10
2022-10-17T16:22:42.204Z,6.80
2022-10-17T16:25:21.468Z,6.20
2022-10-17T16:27:51.488Z,4.90
2022-10-17T16:30:18.982Z,3.58
2022-10-17T16:32:46.473Z,5.13
2022-10-17T16:35:19.074Z,3.38
2022-10-17T16:37:45.921Z,3.07
2022-10-17T16:40:12.670Z,5.07
2022-10-17T16:42:40.095Z,2.97
2022-10-17T16:45:07.493Z,4.67
2022-10-17T16:47:34.309Z,4.25
2022-10-17T16:50:01.060Z,4.67
2022-10-17T16:52:28.508Z,6.80
2022-10-17T16:54:55.383Z,5.97
2022-10-17T16:57:22.127Z,4.18
2022-10-17T16:59:48.867Z,3.00
2022-10-17T17:02:18.928Z,5.23
2022-10-17T17:04:48.162Z,4.17
2022-10-17T17:07:15.057Z,4.33
2022-10-17T17:09:41.806Z,3.58
2022-10-17T17:12:08.592Z,2.93
2022-10-17T17:14:35.437Z,4.00
2022-10-17T17:17:02.255Z,3.03
2022-10-17T17:19:29.085Z,5.07
2022-10-17T17:21:55.868Z,7.50
2022-10-17T17:24:22.642Z,5.35
2022-10-17T17:26:55.372Z,4.90
2022-10-17T17:29:23.268Z,6.18
2022-10-17T17:31:50.463Z,5.60
2022-10-17T17:34:18.349Z,6.25
2022-10-17T17:36:45.924Z,5.38
2022-10-17T17:39:14.566Z,5.80
2022-10-17T17:41:42.473Z,5.63
2022-10-17T17:44:15.575Z,8.20
2022-10-17T17:46:43.895Z,5.77
2022-10-17T17:49:11.692Z,5.30
2022-10-17T17:51:41.442Z,5.93
2022-10-17T17:54:11.507Z,3.87
2022-10-17T17:56:38.884Z,4.82
2022-10-17T17:59:05.769Z,5.13
2022-10-17T18:01:38.787Z,5.83
2022-10-17T18:04:08.598Z,5.00
2022-10-17T18:06:36.724Z,4.67
2022-10-17T18:09:05.330Z,7.10
2022-10-17T18:11:32.569Z,7.60
2022-10-17T18:14:04.091Z,7.22
2022-10-17T18:16:32.816Z,6.60
2022-10-17T18:19:04.085Z,5.80
2022-10-17T18:21:33.979Z,6.18
2022-10-17T18:24:00.980Z,5.13
2022-10-17T18:26:28.360Z,4.97
2022-10-17T18:28:56.025Z,6.87
2022-10-17T18:31:28.284Z,7.80
2022-10-17T18:33:57.095Z,5.45
2022-10-17T18:36:26.094Z,6.23
2022-10-17T18:38:54.171Z,5.93
2022-10-17T18:41:23.489Z,7.87
2022-10-17T18:43:51.489Z,7.37
2022-10-17T18:46:20.817Z,8.82
2022-10-17T18:48:48.732Z,5.67
2022-10-17T18:51:21.675Z,8.80
2022-10-17T18:53:53.640Z,7.67
2022-10-17T18:56:21.407Z,6.00
2022-10-17T18:58:48.452Z,10.50
2022-10-17T19:01:21.642Z,8.40
2022-10-17T19:03:50.228Z,6.32
2022-10-17T19:06:19.793Z,7.30
2022-10-17T19:08:46.812Z,6.27
2022-10-17T19:11:14.713Z,6.73
2022-10-17T19:13:42.607Z,7.47
2022-10-17T19:16:16.369Z,6.73
2022-10-17T19:18:43.886Z,11.13
2022-10-17T19:21:11.542Z,8.43
2022-10-17T19:23:38.721Z,12.23
2022-10-17T19:26:08.820Z,7.50
2022-10-17T19:28:37.073Z,10.57
2022-10-17T19:31:05.914Z,8.40
2022-10-17T19:33:33.405Z,8.33
2022-10-17T19:36:06.565Z,9.23
2022-10-17T19:38:34.235Z,11.73
2022-10-17T19:41:01.303Z,8.77
2022-10-17T19:43:28.631Z,14.07
2022-10-17T19:46:03.157Z,10.03
2022-10-17T19:48:33.106Z,9.10
2022-10-17T19:50:59.927Z,8.83
2022-10-17T19:53:29.319Z,8.63
2022-10-17T19:55:57.458Z,9.43
2022-10-17T19:58:25.387Z,11.10
2022-10-17T20:00:54.982Z,10.07
2022-10-17T20:03:21.992Z,9.83
2022-10-17T20:05:49.083Z,10.67
2022-10-17T20:08:16.425Z,10.37
2022-10-17T20:10:43.760Z,9.60
2022-10-17T20:13:10.807Z,8.23
2022-10-17T20:15:37.880Z,10.80
2022-10-17T20:18:05.896Z,9.13
2022-10-17T20:20:35.094Z,11.73
2022-10-17T20:23:03.169Z,8.80
2022-10-17T20:25:30.426Z,12.37
2022-10-17T20:27:57.258Z,11.37
2022-10-17T20:30:24.074Z,8.80
2022-10-17T20:32:55.099Z,9.52
2022-10-17T20:35:22.778Z,10.87
2022-10-17T20:37:49.723Z,12.83
2022-10-17T20:40:34.201Z,11.38
2022-10-17T20:43:03.890Z,9.27
2022-10-17T20:45:45.074Z,11.33
2022-10-17T20:48:18.724Z,9.33
2022-10-17T20:50:45.471Z,13.87
2022-10-17T20:56:16.859Z,10.47
2022-10-17T20:58:43.654Z,10.80
2022-10-17T21:01:10.940Z,9.50
2022-10-17T21:03:42.318Z,10.57
2022-10-17T21:06:12.573Z,10.83
2022-10-17T21:08:40.095Z,12.80
2022-10-17T21:11:12.237Z,10.63
2022-10-17T21:13:39.652Z,13.03
2022-10-17T21:16:18.142Z,10.73
2022-10-17T21:18:45.908Z,10.33
2022-10-17T21:21:21.283Z,9.43
2022-10-17T21:23:50.049Z,13.83
2022-10-17T21:26:17.908Z,13.83
2022-10-17T21:28:45.844Z,11.43
2022-10-17T21:31:15.962Z,12.73
2022-10-17T21:33:45.213Z,16.67
2022-10-17T21:36:13.765Z,12.50
2022-10-17T21:38:41.015Z,14.60
2022-10-17T21:41:09.163Z,14.77
2022-10-17T21:43:37.116Z,14.87
2022-10-17T21:46:26.165Z,11.20
2022-10-17T21:48:53.291Z,19.93
2022-10-17T21:51:24.933Z,13.87
2022-10-17T21:53:53.286Z,11.90
2022-10-17T21:56:23.945Z,11.73
2022-10-17T21:58:51.717Z,9.90
2022-10-17T22:01:22.464Z,12.27
2022-10-17T22:03:52.150Z,12.80
2022-10-17T22:09:17.009Z,13.43
2022-10-17T22:11:48.858Z,12.90
2022-10-17T22:14:18.233Z,14.50
2022-10-17T22:16:46.589Z,13.47
2022-10-17T22:19:16.638Z,12.27
2022-10-17T22:21:43.487Z,16.00
2022-10-17T22:24:13.619Z,15.57
2022-10-17T22:26:40.592Z,17.10
2022-10-17T22:29:08.949Z,21.33
2022-10-17T22:31:36.760Z,13.43
2022-10-17T22:34:05.339Z,21.03
2022-10-17T22:36:33.209Z,14.67
2022-10-17T22:38:59.937Z,12.77
2022-10-17T22:41:26.671Z,17.03
2022-10-17T22:43:53.448Z,18.30
2022-10-17T22:46:20.275Z,18.50
2022-10-17T22:48:47.169Z,15.40
2022-10-17T22:51:14.189Z,14.60
2022-10-17T22:53:41.277Z,17.17
2022-10-17T22:56:11.617Z,13.37
2022-10-17T22:58:38.833Z,19.00
2022-10-17T23:01:07.676Z,20.97
2022-10-17T23:03:35.623Z,18.10
2022-10-17T23:06:03.155Z,14.47
2022-10-17T23:08:30.362Z,20.37
2022-10-17T23:10:57.858Z,15.93
2022-10-17T23:13:25.030Z,14.43
2022-10-17T23:15:53.311Z,16.23
2022-10-17T23:18:21.351Z,16.90
2022-10-17T23:20:48.806Z,15.57
2022-10-17T23:23:15.745Z,14.97
2022-10-17T23:25:42.841Z,14.60
2022-10-17T23:28:10.360Z,23.33
2022-10-17T23:30:38.166Z,17.20
2022-10-17T23:33:05.613Z,16.27
2022-10-17T23:35:32.624Z,19.63
2022-10-17T23:37:59.661Z,16.13
2022-10-17T23:40:26.711Z,16.47
2022-10-17T23:42:53.441Z,22.47
2022-10-17T23:45:20.191Z,23.97
2022-10-17T23:47:46.992Z,22.20
2022-10-17T23:50:13.825Z,21.20
2022-10-17T23:52:40.535Z,18.07
2022-10-17T23:55:08.036Z,15.50
2022-10-17T23:57:34.924Z,11.90
